Matunuck, Rhode Island
Current Conditions -  °F | °C
As of 8:50 AM on Friday 19 Dec 2014 (Local Time) from KOQU Reporting Station
Broken Clouds Broken Clouds  
Wind Chill: 24°   Ceiling: 5000
Heat Index: 34°   Visibility: 15mi
Dew Point: 25°   Wind: 14mph
Humidity: 70%   Direction: 320°NW
Pressure: 29.94"   Gusts: NA
Location:  41.4261°N, 71.5353°W
Report Text: KOQU 191350Z 32012KT 15SM BKN050 01/M04 A2994
Loading
Personal Weather Stations






























Interactive Weather Map New forecast layout! Learn more

10-Day Weather Forecast

Advertisements
Track Severe Weather on mobile